SWR12E EDDS-EDDN
Flight info
| Callsign | SWR12E |
|---|---|
| Flight time | 0h 20m |
| Altitude | 17000 |
| Route | DKB4H/07 DKB N869 LETKU LETKU1T |
| Aircraft | A320/M-SDE3FGHIRWY/LB1 |
Departure
| Time | 2026-05-01 09:28 |
|---|---|
| Airport | Stuttgart Airport (EDDS) |
Arrival
| Time | 2026-05-01 09:49 |
|---|---|
| Airport | Nuremberg Airport (EDDN) |
| Time | Latitude | Longitude | Altitude | Speed | Heading |
|---|---|---|---|---|---|
| 2026-05-01 09:14 | 48.68894 | 9.19431 | 1285 ft | 0 kts | 343° |
| 2026-05-01 09:19 | 48.68893 | 9.19432 | 1285 ft | 2 kts | 343° |
| 2026-05-01 09:20 | 48.68861 | 9.19447 | 1288 ft | 2 kts | 343° |
| 2026-05-01 09:20 | 48.68828 | 9.19451 | 1290 ft | 2 kts | 62° |
| 2026-05-01 09:21 | 48.68827 | 9.19447 | 1290 ft | 0 kts | 69° |
| 2026-05-01 09:24 | 48.68827 | 9.19450 | 1285 ft | 1 kts | 77° |
| 2026-05-01 09:24 | 48.68829 | 9.19492 | 1285 ft | 6 kts | 86° |
| 2026-05-01 09:24 | 48.68847 | 9.19613 | 1289 ft | 5 kts | 73° |
| 2026-05-01 09:25 | 48.68864 | 9.19698 | 1287 ft | 3 kts | 74° |
| 2026-05-01 09:25 | 48.68877 | 9.19773 | 1288 ft | 8 kts | 75° |
| 2026-05-01 09:26 | 48.68857 | 9.19876 | 1285 ft | 13 kts | 144° |
| 2026-05-01 09:26 | 48.68695 | 9.19981 | 1288 ft | 0 kts | 164° |
| 2026-05-01 09:27 | 48.68633 | 9.20022 | 1287 ft | 16 kts | 142° |
| 2026-05-01 09:27 | 48.68603 | 9.20169 | 1287 ft | 0 kts | 74° |
| 2026-05-01 09:27 | 48.68623 | 9.20277 | 1287 ft | 40 kts | 74° |
| 2026-05-01 09:28 | 48.68770 | 9.21053 | 1286 ft | 110 kts | 74° |
| 2026-05-01 09:28 | 48.69012 | 9.22409 | 1379 ft | 151 kts | 75° |
| 2026-05-01 09:28 | 48.69317 | 9.24022 | 1852 ft | 168 kts | 76° |
| 2026-05-01 09:28 | 48.69646 | 9.25815 | 2422 ft | 188 kts | 75° |
| 2026-05-01 09:29 | 48.70432 | 9.30018 | 3425 ft | 224 kts | 77° |
| 2026-05-01 09:29 | 48.70877 | 9.32385 | 3983 ft | 244 kts | 78° |
| 2026-05-01 09:30 | 48.71847 | 9.37480 | 5101 ft | 257 kts | 77° |
| 2026-05-01 09:30 | 48.72349 | 9.40099 | 5676 ft | 260 kts | 76° |
| 2026-05-01 09:30 | 48.73364 | 9.45378 | 6936 ft | 265 kts | 75° |
| 2026-05-01 09:31 | 48.73903 | 9.48064 | 7532 ft | 267 kts | 71° |
| 2026-05-01 09:31 | 48.74770 | 9.50578 | 8156 ft | 273 kts | 57° |
| 2026-05-01 09:31 | 48.77200 | 9.55086 | 9437 ft | 277 kts | 53° |
| 2026-05-01 09:32 | 48.78447 | 9.57359 | 10095 ft | 281 kts | 52° |
| 2026-05-01 09:32 | 48.81050 | 9.62119 | 11326 ft | 308 kts | 52° |
| 2026-05-01 09:32 | 48.82443 | 9.64678 | 11955 ft | 320 kts | 52° |
| 2026-05-01 09:33 | 48.83883 | 9.67332 | 12599 ft | 331 kts | 53° |
| 2026-05-01 09:33 | 48.85363 | 9.70059 | 13246 ft | 338 kts | 53° |
| 2026-05-01 09:33 | 48.88411 | 9.75673 | 14527 ft | 346 kts | 51° |
| 2026-05-01 09:34 | 48.89946 | 9.78499 | 15127 ft | 351 kts | 52° |
| 2026-05-01 09:34 | 48.91509 | 9.81382 | 15744 ft | 353 kts | 52° |
| 2026-05-01 09:34 | 48.94633 | 9.87168 | 16864 ft | 361 kts | 52° |
| 2026-05-01 09:35 | 48.96224 | 9.90124 | 16998 ft | 362 kts | 52° |
| 2026-05-01 09:35 | 48.99532 | 9.96277 | 17038 ft | 380 kts | 52° |
| 2026-05-01 09:35 | 49.01215 | 9.99400 | 17036 ft | 381 kts | 52° |
| 2026-05-01 09:36 | 49.02898 | 10.02527 | 17029 ft | 381 kts | 52° |
| 2026-05-01 09:36 | 49.04577 | 10.05653 | 17035 ft | 381 kts | 52° |
| 2026-05-01 09:36 | 49.06232 | 10.08743 | 16715 ft | 373 kts | 52° |
| 2026-05-01 09:36 | 49.07854 | 10.11776 | 16369 ft | 365 kts | 52° |
| 2026-05-01 09:37 | 49.09442 | 10.14746 | 16005 ft | 358 kts | 52° |
| 2026-05-01 09:37 | 49.12553 | 10.20582 | 15225 ft | 352 kts | 52° |
| 2026-05-01 09:37 | 49.14096 | 10.23468 | 14705 ft | 348 kts | 51° |
| 2026-05-01 09:38 | 49.17496 | 10.28684 | 13393 ft | 345 kts | 40° |
| 2026-05-01 09:38 | 49.19372 | 10.30935 | 12728 ft | 341 kts | 40° |
| 2026-05-01 09:38 | 49.21223 | 10.33112 | 12097 ft | 339 kts | 39° |
| 2026-05-01 09:39 | 49.24962 | 10.37479 | 11086 ft | 335 kts | 40° |
| 2026-05-01 09:39 | 49.26808 | 10.39634 | 10998 ft | 328 kts | 40° |
| 2026-05-01 09:39 | 49.28570 | 10.41697 | 11003 ft | 310 kts | 40° |
| 2026-05-01 09:40 | 49.30244 | 10.43661 | 10782 ft | 301 kts | 39° |
| 2026-05-01 09:40 | 49.33594 | 10.47622 | 9678 ft | 306 kts | 41° |
| 2026-05-01 09:40 | 49.35281 | 10.49627 | 9112 ft | 307 kts | 40° |
| 2026-05-01 09:41 | 49.36973 | 10.51634 | 8537 ft | 307 kts | 40° |
| 2026-05-01 09:41 | 49.40323 | 10.55607 | 7551 ft | 304 kts | 41° |
| 2026-05-01 09:41 | 49.42010 | 10.57607 | 7046 ft | 302 kts | 41° |
| 2026-05-01 09:42 | 49.43673 | 10.59577 | 6496 ft | 302 kts | 41° |
| 2026-05-01 09:42 | 49.45307 | 10.61508 | 5911 ft | 296 kts | 41° |
| 2026-05-01 09:42 | 49.48456 | 10.65240 | 4674 ft | 276 kts | 42° |
| 2026-05-01 09:43 | 49.51288 | 10.68609 | 4199 ft | 232 kts | 43° |
| 2026-05-01 09:43 | 49.52340 | 10.70313 | 4196 ft | 202 kts | 62° |
| 2026-05-01 09:43 | 49.52905 | 10.72165 | 4274 ft | 186 kts | 77° |
| 2026-05-01 09:44 | 49.52955 | 10.75962 | 4208 ft | 177 kts | 105° |
| 2026-05-01 09:44 | 49.52610 | 10.77801 | 4214 ft | 174 kts | 111° |
| 2026-05-01 09:44 | 49.52287 | 10.79579 | 4083 ft | 175 kts | 109° |
| 2026-05-01 09:45 | 49.51945 | 10.81372 | 3826 ft | 175 kts | 103° |
| 2026-05-01 09:45 | 49.51722 | 10.85109 | 3145 ft | 177 kts | 96° |
| 2026-05-01 09:45 | 49.51725 | 10.86999 | 3025 ft | 176 kts | 91° |
| 2026-05-01 09:46 | 49.51663 | 10.88859 | 2748 ft | 174 kts | 98° |
| 2026-05-01 09:46 | 49.51527 | 10.90716 | 2673 ft | 176 kts | 97° |
| 2026-05-01 09:46 | 49.51366 | 10.92612 | 2637 ft | 185 kts | 99° |
| 2026-05-01 09:46 | 49.51165 | 10.94517 | 2401 ft | 173 kts | 99° |
| 2026-05-01 09:47 | 49.51025 | 10.96255 | 2092 ft | 156 kts | 97° |
| 2026-05-01 09:47 | 49.50917 | 10.97796 | 2019 ft | 133 kts | 103° |
| 2026-05-01 09:47 | 49.50749 | 10.99166 | 1907 ft | 145 kts | 101° |
| 2026-05-01 09:47 | 49.50561 | 11.00863 | 1731 ft | 169 kts | 99° |
| 2026-05-01 09:48 | 49.50375 | 11.02678 | 1484 ft | 171 kts | 98° |
| 2026-05-01 09:48 | 49.50197 | 11.04469 | 1265 ft | 167 kts | 101° |
| 2026-05-01 09:48 | 49.50022 | 11.06252 | 1043 ft | 168 kts | 100° |
| 2026-05-01 09:48 | 49.49840 | 11.07797 | 1034 ft | 101 kts | 97° |
| 2026-05-01 09:49 | 49.49814 | 11.08256 | 1029 ft | 0 kts | 96° |
| 2026-05-01 09:49 | 49.49809 | 11.08324 | 1030 ft | 13 kts | 96° |
| 2026-05-01 09:49 | 49.49791 | 11.08496 | 1029 ft | 19 kts | 108° |
| 2026-05-01 09:49 | 49.49678 | 11.08513 | 1031 ft | 22 kts | 225° |
| 2026-05-01 09:50 | 49.49578 | 11.08364 | 1032 ft | 17 kts | 201° |
| 2026-05-01 09:50 | 49.49534 | 11.08241 | 1031 ft | 13 kts | 273° |
| 2026-05-01 09:50 | 49.49550 | 11.08100 | 1030 ft | 13 kts | 280° |
| 2026-05-01 09:50 | 49.49566 | 11.07972 | 1030 ft | 11 kts | 280° |
| 2026-05-01 09:51 | 49.49579 | 11.07861 | 1030 ft | 10 kts | 280° |
| 2026-05-01 09:51 | 49.49590 | 11.07756 | 1027 ft | 10 kts | 277° |
| 2026-05-01 09:51 | 49.49570 | 11.07670 | 1025 ft | 9 kts | 211° |
| 2026-05-01 09:51 | 49.49530 | 11.07660 | 1027 ft | 0 kts | 188° |